createdAt,value
2017-01-24T00:00:21.850Z,0
2017-01-24T00:00:51.890Z,0
2017-01-24T00:01:21.901Z,0
2017-01-24T00:01:51.922Z,0
2017-01-24T00:02:21.952Z,0
2017-01-24T00:02:51.982Z,0
2017-01-24T00:03:22.009Z,0
2017-01-24T00:03:52.033Z,0
2017-01-24T00:04:22.054Z,0
2017-01-24T00:04:52.096Z,0
2017-01-24T00:05:22.123Z,0
2017-01-24T00:05:52.140Z,0
2017-01-24T00:06:22.341Z,0
2017-01-24T00:06:52.186Z,0
2017-01-24T00:07:22.221Z,0
2017-01-24T00:07:52.253Z,0
2017-01-24T00:08:22.274Z,0
2017-01-24T00:08:52.301Z,0
2017-01-24T00:09:22.341Z,0
2017-01-24T00:09:52.375Z,0
2017-01-24T00:10:22.391Z,0
2017-01-24T00:10:52.404Z,0
2017-01-24T00:11:22.739Z,0
2017-01-24T00:11:52.465Z,0
2017-01-24T00:12:22.497Z,0
2017-01-24T00:12:52.514Z,0
2017-01-24T00:13:22.538Z,0
2017-01-24T00:13:52.575Z,0
2017-01-24T00:14:22.599Z,0
2017-01-24T00:14:52.617Z,0
2017-01-24T00:15:22.642Z,0
2017-01-24T00:15:52.674Z,0
2017-01-24T00:16:22.707Z,0
2017-01-24T00:16:52.725Z,0
2017-01-24T00:17:22.755Z,0
2017-01-24T00:17:52.784Z,0
2017-01-24T00:18:22.808Z,0
2017-01-24T00:18:52.833Z,0
2017-01-24T00:19:22.864Z,0
2017-01-24T00:19:52.881Z,0
2017-01-24T00:20:22.915Z,0
2017-01-24T00:20:52.939Z,0
2017-01-24T00:21:23.000Z,0
2017-01-24T00:21:52.992Z,0
2017-01-24T00:22:23.012Z,0
2017-01-24T00:22:53.047Z,0
2017-01-24T00:23:23.074Z,0
2017-01-24T00:23:53.104Z,0
2017-01-24T00:24:23.134Z,0
2017-01-24T00:24:53.156Z,0
2017-01-24T00:25:23.179Z,0
2017-01-24T00:25:53.199Z,0
2017-01-24T00:26:23.239Z,0
2017-01-24T00:26:53.264Z,0
2017-01-24T00:27:23.313Z,0
2017-01-24T00:27:53.316Z,0
2017-01-24T00:28:23.342Z,0
2017-01-24T00:28:53.373Z,0
2017-01-24T00:29:23.393Z,0
2017-01-24T00:29:53.422Z,0
2017-01-24T00:30:23.452Z,0
2017-01-24T00:30:53.480Z,0
2017-01-24T00:31:23.509Z,0
2017-01-24T00:31:53.536Z,0
2017-01-24T00:32:23.557Z,0
2017-01-24T00:32:53.586Z,0
2017-01-24T00:33:23.614Z,0
2017-01-24T00:33:53.642Z,0
2017-01-24T00:34:23.675Z,0
2017-01-24T00:34:53.694Z,0
2017-01-24T00:35:23.715Z,0
2017-01-24T00:35:53.749Z,0
2017-01-24T00:36:23.770Z,0
2017-01-24T00:36:53.798Z,0
2017-01-24T00:37:23.822Z,0
2017-01-24T00:37:53.850Z,0
2017-01-24T00:38:23.878Z,0
2017-01-24T00:38:53.901Z,0
2017-01-24T00:39:24.074Z,0
2017-01-24T00:39:53.955Z,0
2017-01-24T00:40:23.984Z,0
2017-01-24T00:40:54.014Z,0
2017-01-24T00:41:24.029Z,0
2017-01-24T00:41:54.055Z,0
2017-01-24T00:42:24.084Z,0
2017-01-24T00:42:54.121Z,0
2017-01-24T00:43:24.146Z,0
2017-01-24T00:43:54.168Z,0
2017-01-24T00:44:24.204Z,0
2017-01-24T00:44:54.224Z,0
2017-01-24T00:45:24.256Z,0
2017-01-24T00:45:54.286Z,0
2017-01-24T00:46:24.310Z,0
2017-01-24T00:46:54.323Z,0
2017-01-24T00:47:24.360Z,0
2017-01-24T00:47:54.389Z,0
2017-01-24T00:48:24.418Z,0
2017-01-24T00:48:54.446Z,0
2017-01-24T00:49:24.459Z,0
2017-01-24T00:49:54.486Z,0
2017-01-24T00:50:24.522Z,0
2017-01-24T00:50:54.576Z,0
2017-01-24T00:51:24.572Z,0
2017-01-24T00:51:54.604Z,0
2017-01-24T00:52:24.627Z,0
2017-01-24T00:52:54.662Z,0
2017-01-24T00:53:24.682Z,0
2017-01-24T00:53:54.710Z,0
2017-01-24T00:54:24.732Z,0
2017-01-24T00:54:54.756Z,0
2017-01-24T00:55:24.797Z,0
2017-01-24T00:55:54.838Z,0
2017-01-24T00:56:24.846Z,0
2017-01-24T00:56:54.869Z,0
2017-01-24T00:57:24.892Z,0
2017-01-24T00:57:54.917Z,0
2017-01-24T00:58:24.940Z,0
2017-01-24T00:58:54.979Z,0
2017-01-24T00:59:25.003Z,0
2017-01-24T00:59:55.028Z,0
2017-01-24T01:00:25.052Z,0
2017-01-24T01:00:55.086Z,0
2017-01-24T01:01:25.108Z,0
2017-01-24T01:01:55.138Z,0
2017-01-24T01:02:25.160Z,0
2017-01-24T01:02:55.193Z,0
2017-01-24T01:03:25.214Z,0
2017-01-24T01:03:55.249Z,0
2017-01-24T01:04:25.276Z,0
2017-01-24T01:04:55.291Z,0
2017-01-24T01:05:25.319Z,0
2017-01-24T01:05:55.350Z,0
2017-01-24T01:06:25.369Z,0
2017-01-24T01:06:55.402Z,0
2017-01-24T01:07:25.433Z,0
2017-01-24T01:07:55.554Z,0
2017-01-24T01:08:25.489Z,0
2017-01-24T01:08:55.507Z,0
2017-01-24T01:09:25.535Z,0
2017-01-24T01:09:55.563Z,0
2017-01-24T01:10:25.593Z,0
2017-01-24T01:10:55.626Z,0
2017-01-24T01:11:25.644Z,0
2017-01-24T01:11:55.674Z,0
2017-01-24T01:12:25.706Z,0
2017-01-24T01:12:55.722Z,0
2017-01-24T01:13:25.755Z,0
2017-01-24T01:13:55.782Z,0
2017-01-24T01:14:25.809Z,0
2017-01-24T01:14:55.858Z,0
2017-01-24T01:15:25.857Z,0
2017-01-24T01:15:55.881Z,0
2017-01-24T01:16:25.916Z,0
2017-01-24T01:16:55.962Z,0
2017-01-24T01:17:25.973Z,0
2017-01-24T01:17:55.993Z,0
2017-01-24T01:18:26.044Z,0
2017-01-24T01:18:56.059Z,0
2017-01-24T01:19:26.070Z,0
2017-01-24T01:19:56.121Z,0
2017-01-24T01:20:26.155Z,0
2017-01-24T01:20:56.149Z,0
2017-01-24T01:21:26.183Z,0
2017-01-24T01:21:56.205Z,0
2017-01-24T01:22:26.232Z,0
2017-01-24T01:22:56.253Z,0
2017-01-24T01:23:26.286Z,0
2017-01-24T01:23:56.311Z,0
2017-01-24T01:24:26.344Z,0
2017-01-24T01:24:56.361Z,0
2017-01-24T01:25:26.396Z,0
2017-01-24T01:25:56.422Z,0
2017-01-24T01:26:26.455Z,0
2017-01-24T01:26:56.472Z,0
2017-01-24T01:27:26.504Z,0
2017-01-24T01:27:56.525Z,0
2017-01-24T01:28:26.554Z,0
2017-01-24T01:28:56.581Z,0
2017-01-24T01:29:26.633Z,0
2017-01-24T01:29:56.635Z,0
2017-01-24T01:30:26.655Z,0
2017-01-24T01:30:56.691Z,0
2017-01-24T01:31:26.704Z,0
2017-01-24T01:31:56.740Z,0
2017-01-24T01:32:26.765Z,0
2017-01-24T01:32:56.795Z,0
2017-01-24T01:33:26.824Z,0
2017-01-24T01:33:56.848Z,0
2017-01-24T01:34:26.874Z,0
2017-01-24T01:34:56.904Z,0
2017-01-24T01:35:26.922Z,0
2017-01-24T01:35:56.972Z,0
2017-01-24T01:36:26.986Z,0
2017-01-24T01:36:57.004Z,0
2017-01-24T01:37:27.039Z,0
2017-01-24T01:37:57.061Z,0
2017-01-24T01:38:27.303Z,0
2017-01-24T01:38:57.122Z,0
2017-01-24T01:39:27.149Z,0
2017-01-24T01:39:57.171Z,0
2017-01-24T01:40:27.196Z,0
2017-01-24T01:40:57.226Z,0
2017-01-24T01:41:27.251Z,0
2017-01-24T01:41:57.276Z,0
2017-01-24T01:42:27.299Z,0
2017-01-24T01:42:57.329Z,0
2017-01-24T01:43:27.362Z,0
2017-01-24T01:43:57.394Z,0
2017-01-24T01:44:27.413Z,0
2017-01-24T01:44:57.439Z,0
2017-01-24T01:45:27.471Z,0
2017-01-24T01:45:57.486Z,0
2017-01-24T01:46:27.513Z,0
2017-01-24T01:46:57.554Z,0
2017-01-24T01:47:27.568Z,0
2017-01-24T01:47:57.596Z,0
2017-01-24T01:48:27.628Z,0
2017-01-24T01:48:57.659Z,0
2017-01-24T01:49:27.681Z,0
2017-01-24T01:49:57.713Z,0
2017-01-24T01:50:27.735Z,0
2017-01-24T01:50:57.756Z,0
2017-01-24T01:51:27.787Z,0
2017-01-24T01:51:57.822Z,0
2017-01-24T01:52:27.861Z,0
2017-01-24T01:52:57.863Z,0
2017-01-24T01:53:27.897Z,0
2017-01-24T01:53:57.917Z,0
2017-01-24T01:54:27.951Z,0
2017-01-24T01:54:57.971Z,0
2017-01-24T01:55:28.002Z,0
2017-01-24T01:55:58.025Z,0
2017-01-24T01:56:28.049Z,0
2017-01-24T01:56:58.076Z,0
2017-01-24T01:57:28.100Z,0
2017-01-24T01:57:58.149Z,0
2017-01-24T01:58:28.156Z,0
2017-01-24T01:58:58.187Z,0
2017-01-24T01:59:28.213Z,0
2017-01-24T01:59:58.230Z,0
2017-01-24T02:00:28.269Z,0
2017-01-24T02:00:58.304Z,0
2017-01-24T02:01:28.332Z,0
2017-01-24T02:01:58.344Z,0
2017-01-24T02:02:28.378Z,0
2017-01-24T02:02:58.408Z,0
2017-01-24T02:03:28.431Z,0
2017-01-24T02:03:58.454Z,0
2017-01-24T02:04:28.515Z,0
2017-01-24T02:04:58.522Z,0
2017-01-24T02:05:28.533Z,0
2017-01-24T02:05:58.566Z,0
2017-01-24T02:06:28.594Z,0
2017-01-24T02:06:58.613Z,0
2017-01-24T02:07:28.640Z,0
2017-01-24T02:07:58.662Z,0
2017-01-24T02:08:28.693Z,0
2017-01-24T02:08:58.775Z,0
2017-01-24T02:09:28.751Z,0
2017-01-24T02:09:58.778Z,0
2017-01-24T02:10:28.802Z,0
2017-01-24T02:10:58.836Z,0
2017-01-24T02:11:28.854Z,0
2017-01-24T02:11:58.887Z,0
2017-01-24T02:12:28.905Z,0
2017-01-24T02:12:58.929Z,0
2017-01-24T02:13:28.975Z,0
2017-01-24T02:13:58.993Z,0
2017-01-24T02:14:29.042Z,0
2017-01-24T02:14:59.041Z,0
2017-01-24T02:15:29.067Z,0
2017-01-24T02:15:59.096Z,0
2017-01-24T02:16:29.128Z,0
2017-01-24T02:16:59.152Z,0
2017-01-24T02:17:29.175Z,0
2017-01-24T02:17:59.213Z,0
2017-01-24T02:18:29.237Z,0
2017-01-24T02:18:59.256Z,0
2017-01-24T02:19:29.292Z,0
2017-01-24T02:19:59.314Z,0
2017-01-24T02:20:29.339Z,0
2017-01-24T02:20:59.367Z,0
2017-01-24T02:21:29.400Z,0
2017-01-24T02:21:59.421Z,0
2017-01-24T02:22:29.445Z,0
2017-01-24T02:22:59.480Z,0
2017-01-24T02:23:29.510Z,0
2017-01-24T02:23:59.529Z,0
2017-01-24T02:24:29.612Z,0
2017-01-24T02:24:59.590Z,0
2017-01-24T02:25:29.623Z,0
2017-01-24T02:25:59.640Z,0
2017-01-24T02:26:29.665Z,0
2017-01-24T02:26:59.695Z,0
2017-01-24T02:27:29.713Z,0
2017-01-24T02:27:59.746Z,0
2017-01-24T02:28:29.770Z,0
2017-01-24T02:28:59.803Z,0
2017-01-24T02:29:29.828Z,0
2017-01-24T02:29:59.852Z,0
2017-01-24T02:30:29.878Z,0
2017-01-24T02:30:59.910Z,0
2017-01-24T02:31:29.941Z,0
2017-01-24T02:31:59.954Z,0
2017-01-24T02:32:30.015Z,0
2017-01-24T02:33:00.023Z,0
2017-01-24T02:33:30.046Z,0
2017-01-24T02:34:00.241Z,0
2017-01-24T02:34:30.084Z,0
2017-01-24T02:35:00.120Z,0
2017-01-24T02:35:30.151Z,0
2017-01-24T02:36:00.196Z,0
2017-01-24T02:36:30.193Z,0
2017-01-24T02:37:00.230Z,0
2017-01-24T02:37:30.254Z,0
2017-01-24T02:38:00.284Z,0
2017-01-24T02:38:30.314Z,0
2017-01-24T02:39:00.343Z,0
2017-01-24T02:39:30.359Z,0
2017-01-24T02:40:00.393Z,0
2017-01-24T02:40:30.411Z,0
2017-01-24T02:41:00.478Z,0
2017-01-24T02:41:30.467Z,0
2017-01-24T02:42:00.498Z,0
2017-01-24T02:42:30.530Z,0
2017-01-24T02:43:00.551Z,0
2017-01-24T02:43:30.580Z,0
2017-01-24T02:44:00.604Z,0
2017-01-24T02:44:30.792Z,0
2017-01-24T02:45:00.658Z,0
2017-01-24T02:45:30.684Z,0
2017-01-24T02:46:00.723Z,0
2017-01-24T02:46:30.750Z,0
2017-01-24T02:47:00.768Z,0
2017-01-24T02:47:30.798Z,0
2017-01-24T02:48:00.819Z,0
2017-01-24T02:48:30.849Z,0
2017-01-24T02:49:00.879Z,0
2017-01-24T02:49:30.906Z,0
2017-01-24T02:50:00.928Z,0
2017-01-24T02:50:30.953Z,0
2017-01-24T02:51:00.984Z,0
2017-01-24T02:51:31.006Z,0
2017-01-24T02:52:01.038Z,0
2017-01-24T02:52:31.063Z,0
2017-01-24T02:53:01.094Z,0
2017-01-24T02:53:31.120Z,0
2017-01-24T02:54:01.147Z,0
2017-01-24T02:54:31.169Z,0
2017-01-24T02:55:01.256Z,0
2017-01-24T02:55:31.234Z,0
2017-01-24T02:56:01.265Z,0
2017-01-24T02:56:31.290Z,0
2017-01-24T02:57:01.308Z,0
2017-01-24T02:57:31.328Z,0
2017-01-24T02:58:01.362Z,0
2017-01-24T02:58:31.383Z,0
2017-01-24T02:59:01.412Z,0
2017-01-24T02:59:31.441Z,0
2017-01-24T03:00:01.474Z,0
2017-01-24T03:00:31.490Z,0
2017-01-24T03:01:01.522Z,0
2017-01-24T03:01:31.542Z,0
2017-01-24T03:02:01.566Z,0
2017-01-24T03:02:31.604Z,0
2017-01-24T03:03:01.744Z,0
2017-01-24T03:03:31.652Z,0
2017-01-24T03:04:01.688Z,0
2017-01-24T03:04:31.705Z,0
2017-01-24T03:05:02.036Z,0
2017-01-24T03:05:31.762Z,0
2017-01-24T03:06:01.792Z,0
2017-01-24T03:06:31.812Z,0
2017-01-24T03:07:01.846Z,0
2017-01-24T03:07:31.872Z,0
2017-01-24T03:08:01.929Z,0
2017-01-24T03:08:31.922Z,0
2017-01-24T03:09:01.951Z,0
2017-01-24T03:09:31.974Z,0
2017-01-24T03:10:02.151Z,0
2017-01-24T03:10:32.047Z,0
2017-01-24T03:11:02.057Z,0
2017-01-24T03:11:32.081Z,0
2017-01-24T03:12:02.263Z,0
2017-01-24T03:12:32.133Z,0
2017-01-24T03:13:02.157Z,0
2017-01-24T03:13:32.186Z,0
2017-01-24T03:14:02.222Z,0
2017-01-24T03:14:32.258Z,0
2017-01-24T03:15:02.269Z,0
2017-01-24T03:15:32.304Z,0
2017-01-24T03:16:02.327Z,0
2017-01-24T03:16:32.347Z,0
2017-01-24T03:17:02.518Z,0
2017-01-24T03:17:32.390Z,0
2017-01-24T03:18:02.472Z,0
2017-01-24T03:18:32.463Z,0
2017-01-24T03:19:02.787Z,0
2017-01-24T03:19:32.518Z,0
2017-01-24T03:20:02.691Z,0
2017-01-24T03:20:32.558Z,0
2017-01-24T03:21:02.688Z,0
2017-01-24T03:21:32.618Z,0
2017-01-24T03:22:02.792Z,0
2017-01-24T03:22:32.660Z,0
2017-01-24T03:23:03.000Z,0
2017-01-24T03:23:32.724Z,0
2017-01-24T03:24:02.826Z,0
2017-01-24T03:24:32.774Z,0
2017-01-24T03:25:02.970Z,0
2017-01-24T03:25:32.827Z,0
2017-01-24T03:26:03.001Z,0
2017-01-24T03:26:32.882Z,0
2017-01-24T03:27:02.964Z,0
2017-01-24T03:27:32.938Z,0
2017-01-24T03:28:03.314Z,0
2017-01-24T03:28:32.987Z,0
2017-01-24T03:29:03.117Z,0
2017-01-24T03:29:33.041Z,0
2017-01-24T03:30:03.420Z,0
2017-01-24T03:30:33.089Z,0
2017-01-24T03:31:03.124Z,0
2017-01-24T03:31:33.151Z,0
2017-01-24T03:32:03.222Z,0
2017-01-24T03:32:33.206Z,0
2017-01-24T03:33:03.224Z,0
2017-01-24T03:33:33.265Z,0
2017-01-24T03:34:03.435Z,0
2017-01-24T03:34:33.309Z,0
2017-01-24T03:35:03.369Z,0
2017-01-24T03:35:33.372Z,0
2017-01-24T03:36:03.484Z,0
2017-01-24T03:36:33.416Z,0
2017-01-24T03:37:03.449Z,0
2017-01-24T03:37:33.481Z,0
2017-01-24T03:38:03.497Z,0
2017-01-24T03:38:33.520Z,0
2017-01-24T03:39:03.557Z,0
2017-01-24T03:39:33.577Z,0
2017-01-24T03:40:03.603Z,0
2017-01-24T03:40:33.629Z,0
2017-01-24T03:41:03.669Z,0
2017-01-24T03:41:33.710Z,0
2017-01-24T03:42:03.715Z,0
2017-01-24T03:42:33.740Z,0
2017-01-24T03:43:03.813Z,0
2017-01-24T03:43:33.793Z,0
2017-01-24T03:44:03.827Z,0
2017-01-24T03:44:33.853Z,0
2017-01-24T03:45:03.887Z,0
2017-01-24T03:45:33.900Z,0
2017-01-24T03:46:04.031Z,0
2017-01-24T03:46:33.960Z,0
2017-01-24T03:47:04.084Z,0
2017-01-24T03:47:34.002Z,0
2017-01-24T03:48:04.042Z,0
2017-01-24T03:48:34.057Z,0
2017-01-24T03:49:04.083Z,0
2017-01-24T03:49:34.114Z,0
2017-01-24T03:50:04.495Z,0
2017-01-24T03:50:34.176Z,0
2017-01-24T03:51:04.200Z,0
2017-01-24T03:51:34.234Z,0
2017-01-24T03:52:04.352Z,0
2017-01-24T03:52:34.280Z,0
2017-01-24T03:53:04.308Z,0
2017-01-24T03:53:34.334Z,0
2017-01-24T03:54:04.358Z,0
2017-01-24T03:54:34.389Z,0
2017-01-24T03:55:04.417Z,0
2017-01-24T03:55:34.466Z,0
2017-01-24T03:56:04.466Z,0
2017-01-24T03:56:34.491Z,0
2017-01-24T03:57:04.526Z,0
2017-01-24T03:57:34.549Z,0
2017-01-24T03:58:04.575Z,0
2017-01-24T03:58:34.600Z,0
2017-01-24T03:59:04.629Z,0
2017-01-24T03:59:34.658Z,0
2017-01-24T04:00:04.684Z,0
2017-01-24T04:00:34.713Z,0
2017-01-24T04:01:04.749Z,0
2017-01-24T04:01:34.767Z,0
2017-01-24T04:02:04.802Z,0
2017-01-24T04:02:34.836Z,0
2017-01-24T04:03:04.851Z,0
2017-01-24T04:03:34.877Z,0
2017-01-24T04:04:04.902Z,0
2017-01-24T04:04:34.942Z,0
2017-01-24T04:05:04.956Z,0
2017-01-24T04:05:34.991Z,0
2017-01-24T04:06:05.011Z,0
2017-01-24T04:06:35.191Z,0
2017-01-24T04:07:05.072Z,0
2017-01-24T04:07:35.101Z,0
2017-01-24T04:08:05.125Z,0
2017-01-24T04:08:35.153Z,0
2017-01-24T04:09:05.183Z,0
2017-01-24T04:09:35.203Z,0
2017-01-24T04:10:05.231Z,0
2017-01-24T04:10:35.254Z,0
2017-01-24T04:11:05.293Z,0
2017-01-24T04:11:35.306Z,0
2017-01-24T04:12:05.343Z,0
2017-01-24T04:12:35.368Z,0
2017-01-24T04:13:05.406Z,0
2017-01-24T04:13:35.426Z,0
2017-01-24T04:14:05.462Z,0
2017-01-24T04:14:35.507Z,0
2017-01-24T04:15:05.502Z,0
2017-01-24T04:15:35.532Z,0
2017-01-24T04:16:05.548Z,0
2017-01-24T04:16:35.592Z,0
2017-01-24T04:17:05.622Z,0
2017-01-24T04:17:35.651Z,0
2017-01-24T04:18:05.669Z,0
2017-01-24T04:18:35.697Z,0
2017-01-24T04:19:05.760Z,0
2017-01-24T04:19:35.764Z,0
2017-01-24T04:20:05.780Z,0
2017-01-24T04:20:35.802Z,0
2017-01-24T04:21:05.833Z,0
2017-01-24T04:21:35.882Z,0
2017-01-24T04:22:05.887Z,0
2017-01-24T04:22:35.932Z,0
2017-01-24T04:23:05.943Z,0
2017-01-24T04:23:35.975Z,0
2017-01-24T04:24:06.004Z,0
2017-01-24T04:24:36.029Z,0
2017-01-24T04:25:06.060Z,0
2017-01-24T04:25:36.079Z,0
2017-01-24T04:26:06.110Z,0
2017-01-24T04:26:36.137Z,0
2017-01-24T04:27:06.166Z,0
2017-01-24T04:27:36.186Z,0
2017-01-24T04:28:06.222Z,0
2017-01-24T04:28:36.252Z,0
2017-01-24T04:29:06.286Z,0
2017-01-24T04:29:36.318Z,0
2017-01-24T04:30:06.330Z,0
2017-01-24T04:30:36.384Z,0
2017-01-24T04:31:06.386Z,0
2017-01-24T04:31:36.408Z,0
2017-01-24T04:32:06.439Z,0
2017-01-24T04:32:36.464Z,0
2017-01-24T04:33:06.496Z,0
2017-01-24T04:33:36.524Z,0
2017-01-24T04:34:06.553Z,0
2017-01-24T04:34:36.595Z,0
2017-01-24T04:35:06.612Z,0
2017-01-24T04:35:36.627Z,0
2017-01-24T04:36:06.653Z,0
2017-01-24T04:36:36.711Z,0
2017-01-24T04:37:06.712Z,0
2017-01-24T04:37:36.749Z,0
2017-01-24T04:38:06.773Z,0
2017-01-24T04:38:36.789Z,0
2017-01-24T04:39:06.820Z,0
2017-01-24T04:39:36.850Z,0
2017-01-24T04:40:06.872Z,0
2017-01-24T04:40:36.900Z,0
2017-01-24T04:41:06.927Z,0
2017-01-24T04:41:36.952Z,0
2017-01-24T04:42:06.984Z,0
2017-01-24T04:42:37.011Z,0
2017-01-24T04:43:07.038Z,0
2017-01-24T04:43:37.071Z,0
2017-01-24T04:44:07.095Z,0
2017-01-24T04:44:37.132Z,0
2017-01-24T04:45:07.144Z,0
2017-01-24T04:45:37.175Z,0
2017-01-24T04:46:07.209Z,0
2017-01-24T04:46:37.234Z,0
2017-01-24T04:47:07.257Z,0
2017-01-24T04:47:37.281Z,0
2017-01-24T04:48:07.319Z,0
2017-01-24T04:48:37.347Z,0
2017-01-24T04:49:07.377Z,0
2017-01-24T04:49:37.393Z,0
2017-01-24T04:50:07.420Z,0
2017-01-24T04:50:37.453Z,0
2017-01-24T04:51:07.471Z,0
2017-01-24T04:51:37.504Z,0
2017-01-24T04:52:07.529Z,0
2017-01-24T04:52:37.555Z,0
2017-01-24T04:53:07.591Z,0
2017-01-24T04:53:37.618Z,0
2017-01-24T04:54:07.638Z,0
2017-01-24T04:54:37.672Z,0
2017-01-24T04:55:07.692Z,0
2017-01-24T04:55:37.722Z,0
2017-01-24T04:56:07.757Z,0
2017-01-24T04:56:37.777Z,0
2017-01-24T04:57:07.805Z,0
2017-01-24T04:57:37.833Z,0
2017-01-24T04:58:07.867Z,0
2017-01-24T04:58:37.889Z,0
2017-01-24T04:59:07.917Z,0
2017-01-24T04:59:37.942Z,0
2017-01-24T05:00:07.980Z,0
2017-01-24T05:00:38.000Z,0
2017-01-24T05:01:08.033Z,0
2017-01-24T05:01:38.055Z,0
2017-01-24T05:02:08.079Z,0
2017-01-24T05:02:38.107Z,0
2017-01-24T05:03:08.143Z,0
2017-01-24T05:03:38.167Z,0
2017-01-24T05:04:08.190Z,0
2017-01-24T05:04:38.203Z,0
2017-01-24T05:05:08.246Z,0
2017-01-24T05:05:38.276Z,0
2017-01-24T05:06:08.296Z,0
2017-01-24T05:06:38.324Z,0
2017-01-24T05:07:08.360Z,0
2017-01-24T05:07:38.421Z,0
2017-01-24T05:08:08.400Z,0
2017-01-24T05:08:38.434Z,0
2017-01-24T05:09:08.459Z,0
2017-01-24T05:09:38.496Z,0
2017-01-24T05:10:08.527Z,0
2017-01-24T05:10:38.558Z,0
2017-01-24T05:11:08.596Z,0
2017-01-24T05:11:38.601Z,0
2017-01-24T05:12:08.638Z,0
2017-01-24T05:12:38.658Z,0
2017-01-24T05:13:08.808Z,0
2017-01-24T05:13:38.708Z,0
2017-01-24T05:14:08.737Z,0
2017-01-24T05:14:38.763Z,0
2017-01-24T05:15:08.808Z,0
2017-01-24T05:15:38.820Z,0
2017-01-24T05:16:08.857Z,0
2017-01-24T05:16:38.882Z,0
2017-01-24T05:17:08.896Z,0
2017-01-24T05:17:38.926Z,0
2017-01-24T05:18:08.954Z,0
2017-01-24T05:18:38.991Z,0
2017-01-24T05:19:09.012Z,0
2017-01-24T05:19:39.038Z,0
2017-01-24T05:20:09.067Z,0
2017-01-24T05:20:39.092Z,0
2017-01-24T05:21:09.119Z,0
2017-01-24T05:21:39.145Z,0
2017-01-24T05:22:09.175Z,0
2017-01-24T05:22:39.205Z,0
2017-01-24T05:23:09.239Z,0
2017-01-24T05:23:39.269Z,0
2017-01-24T05:24:09.287Z,0
2017-01-24T05:24:39.308Z,0
2017-01-24T05:25:09.344Z,0
2017-01-24T05:25:39.367Z,0
2017-01-24T05:26:09.402Z,0
2017-01-24T05:26:39.429Z,0
2017-01-24T05:27:09.451Z,0
2017-01-24T05:27:39.491Z,0
2017-01-24T05:28:09.510Z,0
2017-01-24T05:28:39.629Z,0
2017-01-24T05:29:09.568Z,0
2017-01-24T05:29:39.597Z,0
2017-01-24T05:30:09.627Z,0
2017-01-24T05:30:39.636Z,0
2017-01-24T05:31:09.674Z,0
2017-01-24T05:31:39.695Z,0
2017-01-24T05:32:09.734Z,0
2017-01-24T05:32:39.753Z,0
2017-01-24T05:33:09.776Z,0
2017-01-24T05:33:39.808Z,0
2017-01-24T05:34:09.853Z,0
2017-01-24T05:34:39.868Z,0
2017-01-24T05:35:09.887Z,0
2017-01-24T05:35:39.913Z,0
2017-01-24T05:36:09.941Z,0
2017-01-24T05:36:39.977Z,0
2017-01-24T05:37:10.000Z,0
2017-01-24T05:37:40.023Z,0
2017-01-24T05:38:10.048Z,0
2017-01-24T05:38:40.082Z,0
2017-01-24T05:39:10.109Z,0
2017-01-24T05:39:40.140Z,0
2017-01-24T05:40:10.164Z,0
2017-01-24T05:40:40.192Z,0
2017-01-24T05:41:10.220Z,0
2017-01-24T05:41:40.260Z,0
2017-01-24T05:42:10.280Z,0
2017-01-24T05:42:40.295Z,0
2017-01-24T05:43:10.322Z,0
2017-01-24T05:43:40.371Z,0
2017-01-24T05:44:10.384Z,0
2017-01-24T05:44:40.433Z,0
2017-01-24T05:45:10.444Z,0
2017-01-24T05:45:40.465Z,0
2017-01-24T05:46:10.494Z,0
2017-01-24T05:46:40.526Z,0
2017-01-24T05:47:10.554Z,0
2017-01-24T05:47:40.574Z,0
2017-01-24T05:48:10.603Z,0
2017-01-24T05:48:40.634Z,0
2017-01-24T05:49:10.657Z,0
2017-01-24T05:49:40.687Z,0
2017-01-24T05:50:10.706Z,0
2017-01-24T05:50:40.740Z,0
2017-01-24T05:51:10.780Z,0
2017-01-24T05:51:40.785Z,0
2017-01-24T05:52:10.818Z,0
2017-01-24T05:52:40.846Z,0
2017-01-24T05:53:10.885Z,0
2017-01-24T05:53:40.902Z,0
2017-01-24T05:54:10.935Z,0
2017-01-24T05:54:40.965Z,0
2017-01-24T05:55:10.998Z,0
2017-01-24T05:55:41.010Z,0
2017-01-24T05:56:11.049Z,0
2017-01-24T05:56:41.079Z,0
2017-01-24T05:57:11.112Z,0
2017-01-24T05:57:41.126Z,0
2017-01-24T05:58:11.152Z,0
2017-01-24T05:58:41.181Z,0
2017-01-24T05:59:11.217Z,0
2017-01-24T05:59:41.237Z,0
2017-01-24T06:00:11.275Z,0
2017-01-24T06:00:41.299Z,0
2017-01-24T06:01:11.318Z,0
2017-01-24T06:01:41.341Z,0
2017-01-24T06:02:11.368Z,0
2017-01-24T06:02:41.404Z,0
2017-01-24T06:03:11.427Z,0
2017-01-24T06:03:41.455Z,0
2017-01-24T06:04:11.494Z,0
2017-01-24T06:04:41.504Z,0
2017-01-24T06:05:11.538Z,0
2017-01-24T06:05:41.564Z,0
2017-01-24T06:06:11.595Z,0
2017-01-24T06:06:41.614Z,0
2017-01-24T06:07:11.651Z,0
2017-01-24T06:07:41.674Z,0
2017-01-24T06:08:11.703Z,0
2017-01-24T06:08:41.723Z,0
2017-01-24T06:09:11.755Z,0
2017-01-24T06:09:41.817Z,0
2017-01-24T06:10:11.810Z,0
2017-01-24T06:10:41.840Z,0
2017-01-24T06:11:11.871Z,0
2017-01-24T06:11:41.897Z,0
2017-01-24T06:12:11.927Z,0
2017-01-24T06:12:41.944Z,0
2017-01-24T06:13:11.977Z,0
2017-01-24T06:13:41.999Z,0
2017-01-24T06:14:12.034Z,0
2017-01-24T06:14:42.060Z,0
2017-01-24T06:15:12.084Z,0
2017-01-24T06:15:42.121Z,0
2017-01-24T06:16:12.138Z,4
2017-01-24T06:16:42.169Z,4
2017-01-24T06:17:12.200Z,4
2017-01-24T06:17:42.229Z,4
2017-01-24T06:18:12.255Z,4
2017-01-24T06:18:42.280Z,4
2017-01-24T06:19:12.312Z,0
2017-01-24T06:19:42.336Z,0
2017-01-24T06:20:12.363Z,0
2017-01-24T06:20:42.395Z,4
2017-01-24T06:21:12.426Z,4
2017-01-24T06:21:42.451Z,4
2017-01-24T06:22:12.481Z,4
2017-01-24T06:22:42.496Z,4
2017-01-24T06:23:12.529Z,4
2017-01-24T06:23:42.569Z,4
2017-01-24T06:24:12.587Z,8
2017-01-24T06:24:42.916Z,4
2017-01-24T06:25:12.636Z,4
2017-01-24T06:25:42.667Z,8
2017-01-24T06:26:12.721Z,8
2017-01-24T06:26:42.734Z,8
2017-01-24T06:27:12.754Z,8
2017-01-24T06:27:42.770Z,12
2017-01-24T06:28:12.807Z,8
2017-01-24T06:28:42.839Z,12
2017-01-24T06:29:12.867Z,12
2017-01-24T06:29:42.896Z,12
2017-01-24T06:30:12.920Z,12
2017-01-24T06:30:42.955Z,16
2017-01-24T06:31:12.993Z,16
2017-01-24T06:31:43.007Z,16
2017-01-24T06:32:13.028Z,20
2017-01-24T06:32:43.063Z,20
2017-01-24T06:33:13.087Z,20
2017-01-24T06:33:43.120Z,24
2017-01-24T06:34:13.142Z,28
2017-01-24T06:34:43.167Z,28
2017-01-24T06:35:13.196Z,32
2017-01-24T06:35:43.216Z,32
2017-01-24T06:36:13.255Z,32
2017-01-24T06:36:43.275Z,36
2017-01-24T06:37:13.311Z,40
2017-01-24T06:37:43.334Z,40
2017-01-24T06:38:13.364Z,40
2017-01-24T06:38:43.391Z,44
2017-01-24T06:39:13.417Z,48
2017-01-24T06:39:43.447Z,48
2017-01-24T06:40:13.473Z,52
2017-01-24T06:40:43.498Z,56
2017-01-24T06:41:13.530Z,60
2017-01-24T06:41:43.561Z,60
2017-01-24T06:42:13.593Z,64
2017-01-24T06:42:43.645Z,72
2017-01-24T06:43:13.646Z,72
2017-01-24T06:43:43.663Z,80
2017-01-24T06:44:13.700Z,84
2017-01-24T06:44:43.724Z,88
2017-01-24T06:45:13.752Z,92
2017-01-24T06:45:43.781Z,100
2017-01-24T06:46:13.807Z,104
2017-01-24T06:46:43.845Z,116
2017-01-24T06:47:13.860Z,120
2017-01-24T06:47:43.892Z,128
2017-01-24T06:48:13.925Z,128
2017-01-24T06:48:43.955Z,132
2017-01-24T06:49:13.977Z,132
2017-01-24T06:49:43.999Z,140
2017-01-24T06:50:14.034Z,144
2017-01-24T06:50:44.065Z,144
2017-01-24T06:51:14.083Z,152
2017-01-24T06:51:44.113Z,160
2017-01-24T06:52:14.283Z,168
2017-01-24T06:52:44.164Z,176
2017-01-24T06:53:14.193Z,188
2017-01-24T06:53:44.241Z,196
2017-01-24T06:54:14.253Z,204
2017-01-24T06:54:44.274Z,212
2017-01-24T06:55:14.313Z,224
2017-01-24T06:55:44.345Z,228
2017-01-24T06:56:14.362Z,232
2017-01-24T06:56:44.395Z,240
2017-01-24T06:57:14.421Z,240
2017-01-24T06:57:44.444Z,248
2017-01-24T06:58:14.473Z,260
2017-01-24T06:58:44.496Z,268
2017-01-24T06:59:14.529Z,276
2017-01-24T06:59:44.557Z,280
2017-01-24T07:00:14.600Z,292
2017-01-24T07:00:44.640Z,304
2017-01-24T07:01:14.635Z,312
2017-01-24T07:01:44.684Z,320
2017-01-24T07:02:14.701Z,332
2017-01-24T07:02:44.752Z,340
2017-01-24T07:03:14.755Z,348
2017-01-24T07:03:44.771Z,360
2017-01-24T07:04:14.806Z,372
2017-01-24T07:04:44.856Z,384
2017-01-24T07:05:14.865Z,400
2017-01-24T07:05:44.889Z,416
2017-01-24T07:06:14.923Z,428
2017-01-24T07:06:44.943Z,432
2017-01-24T07:07:14.974Z,440
2017-01-24T07:07:45.005Z,452
2017-01-24T07:08:15.025Z,456
2017-01-24T07:08:45.083Z,468
2017-01-24T07:09:15.084Z,476
2017-01-24T07:09:45.121Z,480
2017-01-24T07:10:15.145Z,492
2017-01-24T07:10:45.168Z,496
2017-01-24T07:11:15.195Z,500
2017-01-24T07:11:45.228Z,508
2017-01-24T07:12:15.241Z,520
2017-01-24T07:12:45.286Z,528
2017-01-24T07:13:15.336Z,532
2017-01-24T07:13:45.364Z,532
2017-01-24T07:14:15.354Z,528
2017-01-24T07:14:45.391Z,532
2017-01-24T07:15:15.409Z,524
2017-01-24T07:15:45.449Z,540
2017-01-24T07:16:15.531Z,548
2017-01-24T07:16:45.500Z,560
2017-01-24T07:17:15.525Z,564
2017-01-24T07:17:45.706Z,572
2017-01-24T07:18:15.583Z,584
2017-01-24T07:18:45.613Z,596
2017-01-24T07:19:15.647Z,608
2017-01-24T07:19:45.666Z,608
2017-01-24T07:20:15.696Z,624
2017-01-24T07:20:45.722Z,628